sensor_id;sensor_type;location;lat;lon;timestamp;temperature;humidity
7564;DHT22;3823;53.586;10.040;2023-07-29T04:01:28;18.70;70.30
7564;DHT22;3823;53.586;10.040;2023-07-29T04:03:54;18.60;71.70
7564;DHT22;3823;53.586;10.040;2023-07-29T04:06:20;18.50;73.00
7564;DHT22;3823;53.586;10.040;2023-07-29T04:08:45;18.60;74.30
7564;DHT22;3823;53.586;10.040;2023-07-29T04:11:11;18.60;73.90
7564;DHT22;3823;53.586;10.040;2023-07-29T04:13:37;18.70;73.30
7564;DHT22;3823;53.586;10.040;2023-07-29T04:16:04;18.70;72.80
7564;DHT22;3823;53.586;10.040;2023-07-29T04:18:29;18.70;74.10
7564;DHT22;3823;53.586;10.040;2023-07-29T04:20:55;18.80;74.10
7564;DHT22;3823;53.586;10.040;2023-07-29T04:23:20;18.80;72.10
7564;DHT22;3823;53.586;10.040;2023-07-29T04:25:46;18.80;71.90
7564;DHT22;3823;53.586;10.040;2023-07-29T04:28:11;18.80;71.00
7564;DHT22;3823;53.586;10.040;2023-07-29T04:30:37;18.80;67.90
7564;DHT22;3823;53.586;10.040;2023-07-29T04:33:03;18.80;70.00
7564;DHT22;3823;53.586;10.040;2023-07-29T04:35:28;18.80;72.10
7564;DHT22;3823;53.586;10.040;2023-07-29T04:37:54;18.90;72.10
7564;DHT22;3823;53.586;10.040;2023-07-29T04:40:20;18.90;71.30
7564;DHT22;3823;53.586;10.040;2023-07-29T04:42:45;18.90;71.40
7564;DHT22;3823;53.586;10.040;2023-07-29T04:45:11;19.00;68.40
7564;DHT22;3823;53.586;10.040;2023-07-29T04:47:37;19.00;67.50
7564;DHT22;3823;53.586;10.040;2023-07-29T04:50:02;19.00;69.70
7564;DHT22;3823;53.586;10.040;2023-07-29T04:52:28;19.10;71.70
7564;DHT22;3823;53.586;10.040;2023-07-29T04:54:54;19.10;69.90
7564;DHT22;3823;53.586;10.040;2023-07-29T04:57:19;19.10;71.40
7564;DHT22;3823;53.586;10.040;2023-07-29T04:59:45;19.20;70.90
7564;DHT22;3823;53.586;10.040;2023-07-29T05:02:10;19.20;67.90
7564;DHT22;3823;53.586;10.040;2023-07-29T05:04:36;19.20;67.40
7564;DHT22;3823;53.586;10.040;2023-07-29T05:07:02;19.20;65.40
7564;DHT22;3823;53.586;10.040;2023-07-29T05:09:27;19.10;62.90
7564;DHT22;3823;53.586;10.040;2023-07-29T05:11:53;19.20;61.90
7564;DHT22;3823;53.586;10.040;2023-07-29T05:14:19;19.10;64.80
7564;DHT22;3823;53.586;10.040;2023-07-29T05:16:44;19.20;65.40
7564;DHT22;3823;53.586;10.040;2023-07-29T05:19:10;19.10;64.50
7564;DHT22;3823;53.586;10.040;2023-07-29T05:21:37;19.10;60.90
7564;DHT22;3823;53.586;10.040;2023-07-29T05:24:04;19.10;59.50
7564;DHT22;3823;53.586;10.040;2023-07-29T05:26:29;19.10;61.70
7564;DHT22;3823;53.586;10.040;2023-07-29T05:28:55;19.30;61.90
7564;DHT22;3823;53.586;10.040;2023-07-29T05:31:21;19.40;58.70
7564;DHT22;3823;53.586;10.040;2023-07-29T05:33:46;19.40;55.00
7564;DHT22;3823;53.586;10.040;2023-07-29T05:36:12;19.50;56.40
7564;DHT22;3823;53.586;10.040;2023-07-29T05:38:37;19.40;55.40
7564;DHT22;3823;53.586;10.040;2023-07-29T05:41:03;19.50;59.30
7564;DHT22;3823;53.586;10.040;2023-07-29T05:43:28;19.60;56.60
7564;DHT22;3823;53.586;10.040;2023-07-29T05:45:54;19.60;52.30
7564;DHT22;3823;53.586;10.040;2023-07-29T05:48:20;19.50;53.80
7564;DHT22;3823;53.586;10.040;2023-07-29T05:50:45;19.60;56.90
7564;DHT22;3823;53.586;10.040;2023-07-29T05:53:11;19.60;56.60
7564;DHT22;3823;53.586;10.040;2023-07-29T05:55:36;19.70;55.80
7564;DHT22;3823;53.586;10.040;2023-07-29T05:58:02;19.70;55.00
7564;DHT22;3823;53.586;10.040;2023-07-29T06:00:27;19.80;56.00
7564;DHT22;3823;53.586;10.040;2023-07-29T06:02:53;19.80;50.20
7564;DHT22;3823;53.586;10.040;2023-07-29T06:05:18;19.80;45.40
7564;DHT22;3823;53.586;10.040;2023-07-29T06:07:44;19.70;47.00
7564;DHT22;3823;53.586;10.040;2023-07-29T06:10:14;19.80;43.70
7564;DHT22;3823;53.586;10.040;2023-07-29T06:12:42;19.70;46.50
7564;DHT22;3823;53.586;10.040;2023-07-29T06:15:08;19.70;52.00
7564;DHT22;3823;53.586;10.040;2023-07-29T06:17:34;19.70;55.50
7564;DHT22;3823;53.586;10.040;2023-07-29T06:20:00;19.70;55.30
7564;DHT22;3823;53.586;10.040;2023-07-29T06:22:25;19.80;54.90
7564;DHT22;3823;53.586;10.040;2023-07-29T06:24:51;19.90;56.50
7564;DHT22;3823;53.586;10.040;2023-07-29T06:27:16;19.90;55.50
7564;DHT22;3823;53.586;10.040;2023-07-29T06:29:42;20.00;46.30
7564;DHT22;3823;53.586;10.040;2023-07-29T06:32:07;19.90;31.80
7564;DHT22;3823;53.586;10.040;2023-07-29T06:34:33;19.90;35.20
7564;DHT22;3823;53.586;10.040;2023-07-29T06:36:58;20.00;19.60
7564;DHT22;3823;53.586;10.040;2023-07-29T06:39:24;20.00;15.50
7564;DHT22;3823;53.586;10.040;2023-07-29T06:41:49;20.10;20.70
7564;DHT22;3823;53.586;10.040;2023-07-29T06:44:15;20.00;18.90
7564;DHT22;3823;53.586;10.040;2023-07-29T06:46:40;20.10;14.60
7564;DHT22;3823;53.586;10.040;2023-07-29T06:49:06;20.00;18.40
7564;DHT22;3823;53.586;10.040;2023-07-29T06:51:31;20.00;12.60
7564;DHT22;3823;53.586;10.040;2023-07-29T06:54:01;20.20;20.70
7564;DHT22;3823;53.586;10.040;2023-07-29T06:56:26;20.30;16.80
7564;DHT22;3823;53.586;10.040;2023-07-29T06:58:52;20.40;13.00
7564;DHT22;3823;53.586;10.040;2023-07-29T07:01:18;20.40;12.90
7564;DHT22;3823;53.586;10.040;2023-07-29T07:03:43;20.40;13.80
7564;DHT22;3823;53.586;10.040;2023-07-29T07:06:09;20.40;12.50
7564;DHT22;3823;53.586;10.040;2023-07-29T07:08:34;20.30;9.10
7564;DHT22;3823;53.586;10.040;2023-07-29T07:11:00;20.20;23.20
7564;DHT22;3823;53.586;10.040;2023-07-29T07:13:25;20.30;16.80
7564;DHT22;3823;53.586;10.040;2023-07-29T07:15:54;20.30;15.80
7564;DHT22;3823;53.586;10.040;2023-07-29T07:18:20;20.10;24.80
7564;DHT22;3823;53.586;10.040;2023-07-29T07:20:48;20.00;25.70
7564;DHT22;3823;53.586;10.040;2023-07-29T07:23:15;20.00;21.40
7564;DHT22;3823;53.586;10.040;2023-07-29T07:25:41;19.90;26.20
7564;DHT22;3823;53.586;10.040;2023-07-29T07:28:08;19.90;27.10
7564;DHT22;3823;53.586;10.040;2023-07-29T07:30:33;19.90;31.10
7564;DHT22;3823;53.586;10.040;2023-07-29T07:32:59;19.90;37.60
7564;DHT22;3823;53.586;10.040;2023-07-29T07:35:24;19.90;40.40
7564;DHT22;3823;53.586;10.040;2023-07-29T07:37:50;19.90;44.40
7564;DHT22;3823;53.586;10.040;2023-07-29T07:40:15;19.90;47.80
7564;DHT22;3823;53.586;10.040;2023-07-29T07:42:41;20.00;45.70
7564;DHT22;3823;53.586;10.040;2023-07-29T07:45:06;19.90;47.50
7564;DHT22;3823;53.586;10.040;2023-07-29T07:47:32;20.00;42.90
7564;DHT22;3823;53.586;10.040;2023-07-29T07:49:58;19.90;48.80
7564;DHT22;3823;53.586;10.040;2023-07-29T07:52:23;19.90;56.10
7564;DHT22;3823;53.586;10.040;2023-07-29T07:54:54;19.90;44.40
7564;DHT22;3823;53.586;10.040;2023-07-29T07:57:23;20.10;37.80
7564;DHT22;3823;53.586;10.040;2023-07-29T07:59:48;20.10;39.90
7564;DHT22;3823;53.586;10.040;2023-07-29T08:02:14;20.10;40.90
7564;DHT22;3823;53.586;10.040;2023-07-29T08:04:39;20.20;32.10
7564;DHT22;3823;53.586;10.040;2023-07-29T08:07:05;20.10;31.60
7564;DHT22;3823;53.586;10.040;2023-07-29T08:09:31;20.00;38.60
7564;DHT22;3823;53.586;10.040;2023-07-29T08:11:56;20.00;35.00
7564;DHT22;3823;53.586;10.040;2023-07-29T08:14:22;20.00;48.00
7564;DHT22;3823;53.586;10.040;2023-07-29T08:16:47;20.00;49.60
7564;DHT22;3823;53.586;10.040;2023-07-29T08:19:13;20.00;41.70
7564;DHT22;3823;53.586;10.040;2023-07-29T08:21:38;20.10;45.60
7564;DHT22;3823;53.586;10.040;2023-07-29T08:24:04;20.10;45.90
7564;DHT22;3823;53.586;10.040;2023-07-29T08:26:30;20.20;48.50
7564;DHT22;3823;53.586;10.040;2023-07-29T08:28:55;20.10;40.80
7564;DHT22;3823;53.586;10.040;2023-07-29T08:31:21;20.10;29.90
7564;DHT22;3823;53.586;10.040;2023-07-29T08:33:47;20.10;34.50
7564;DHT22;3823;53.586;10.040;2023-07-29T08:36:12;20.10;41.30
7564;DHT22;3823;53.586;10.040;2023-07-29T08:38:38;20.10;44.60
7564;DHT22;3823;53.586;10.040;2023-07-29T08:43:54;20.10;42.00
7564;DHT22;3823;53.586;10.040;2023-07-29T08:46:21;20.10;49.30
7564;DHT22;3823;53.586;10.040;2023-07-29T08:48:47;20.20;48.70
7564;DHT22;3823;53.586;10.040;2023-07-29T08:51:13;20.30;49.20
7564;DHT22;3823;53.586;10.040;2023-07-29T08:53:40;20.30;31.70
7564;DHT22;3823;53.586;10.040;2023-07-29T08:56:06;20.30;38.60
7564;DHT22;3823;53.586;10.040;2023-07-29T08:58:32;20.30;35.30
7564;DHT22;3823;53.586;10.040;2023-07-29T09:00:59;20.30;36.60
7564;DHT22;3823;53.586;10.040;2023-07-29T09:03:24;20.20;36.10
7564;DHT22;3823;53.586;10.040;2023-07-29T09:05:50;20.20;37.80
7564;DHT22;3823;53.586;10.040;2023-07-29T09:08:16;20.20;37.50
7564;DHT22;3823;53.586;10.040;2023-07-29T09:10:42;20.10;39.60
7564;DHT22;3823;53.586;10.040;2023-07-29T09:13:07;20.10;35.60
7564;DHT22;3823;53.586;10.040;2023-07-29T09:15:35;20.10;42.50
7564;DHT22;3823;53.586;10.040;2023-07-29T09:18:12;20.20;41.30
7564;DHT22;3823;53.586;10.040;2023-07-29T09:20:39;20.50;27.00
7564;DHT22;3823;53.586;10.040;2023-07-29T09:23:08;20.50;21.50
7564;DHT22;3823;53.586;10.040;2023-07-29T09:25:35;20.70;17.30
7564;DHT22;3823;53.586;10.040;2023-07-29T09:28:02;20.80;9.10
7564;DHT22;3823;53.586;10.040;2023-07-29T09:30:32;20.90;1.00
7564;DHT22;3823;53.586;10.040;2023-07-29T09:32:58;21.00;1.00
7564;DHT22;3823;53.586;10.040;2023-07-29T09:35:26;21.10;1.00
7564;DHT22;3823;53.586;10.040;2023-07-29T09:37:53;21.20;1.00
7564;DHT22;3823;53.586;10.040;2023-07-29T09:40:19;21.20;1.00
7564;DHT22;3823;53.586;10.040;2023-07-29T09:42:49;21.30;1.00
7564;DHT22;3823;53.586;10.040;2023-07-29T09:45:23;21.50;1.00
7564;DHT22;3823;53.586;10.040;2023-07-29T09:47:49;21.70;1.00
7564;DHT22;3823;53.586;10.040;2023-07-29T09:50:16;21.80;1.00
7564;DHT22;3823;53.586;10.040;2023-07-29T09:52:42;22.00;1.00
7564;DHT22;3823;53.586;10.040;2023-07-29T09:55:12;22.10;1.00
7564;DHT22;3823;53.586;10.040;2023-07-29T09:57:39;22.30;1.00
7564;DHT22;3823;53.586;10.040;2023-07-29T10:00:06;22.60;1.00
7564;DHT22;3823;53.586;10.040;2023-07-29T10:02:40;22.60;1.00
7564;DHT22;3823;53.586;10.040;2023-07-29T10:05:07;22.90;1.00
7564;DHT22;3823;53.586;10.040;2023-07-29T10:07:37;23.20;1.00
7564;DHT22;3823;53.586;10.040;2023-07-29T10:10:07;23.50;99.90
7564;DHT22;3823;53.586;10.040;2023-07-29T10:12:34;23.70;99.90
7564;DHT22;3823;53.586;10.040;2023-07-29T10:15:02;23.90;99.90
7564;DHT22;3823;53.586;10.040;2023-07-29T10:17:29;24.00;99.90
7564;DHT22;3823;53.586;10.040;2023-07-29T10:19:56;24.10;77.60
7564;DHT22;3823;53.586;10.040;2023-07-29T10:22:25;23.90;99.90
7564;DHT22;3823;53.586;10.040;2023-07-29T10:24:56;24.10;99.90
7564;DHT22;3823;53.586;10.040;2023-07-29T10:27:25;24.30;25.20
7564;DHT22;3823;53.586;10.040;2023-07-29T10:29:55;24.00;49.70
7564;DHT22;3823;53.586;10.040;2023-07-29T10:32:25;24.10;14.60
7564;DHT22;3823;53.586;10.040;2023-07-29T10:34:50;24.00;1.00
7564;DHT22;3823;53.586;10.040;2023-07-29T10:37:16;23.70;1.00
7564;DHT22;3823;53.586;10.040;2023-07-29T10:39:52;23.60;1.00
7564;DHT22;3823;53.586;10.040;2023-07-29T10:42:18;23.40;1.00
7564;DHT22;3823;53.586;10.040;2023-07-29T10:44:49;23.40;1.00
7564;DHT22;3823;53.586;10.040;2023-07-29T10:47:15;23.20;1.00
7564;DHT22;3823;53.586;10.040;2023-07-29T10:49:41;23.00;1.00
7564;DHT22;3823;53.586;10.040;2023-07-29T10:52:07;22.80;19.70
7564;DHT22;3823;53.586;10.040;2023-07-29T10:54:47;22.70;94.50
7564;DHT22;3823;53.586;10.040;2023-07-29T10:57:14;22.60;99.90
7564;DHT22;3823;53.586;10.040;2023-07-29T10:59:41;22.60;99.90
7564;DHT22;3823;53.586;10.040;2023-07-29T11:02:18;22.70;99.90
7564;DHT22;3823;53.586;10.040;2023-07-29T11:04:50;22.70;99.90
7564;DHT22;3823;53.586;10.040;2023-07-29T11:12:39;22.80;18.70
7564;DHT22;3823;53.586;10.040;2023-07-29T11:20:15;22.70;99.90
7564;DHT22;3823;53.586;10.040;2023-07-29T11:22:41;22.80;97.00
7564;DHT22;3823;53.586;10.040;2023-07-29T11:25:08;22.70;57.40
7564;DHT22;3823;53.586;10.040;2023-07-29T11:27:35;22.60;88.00
7564;DHT22;3823;53.586;10.040;2023-07-29T11:30:03;22.60;99.90
7564;DHT22;3823;53.586;10.040;2023-07-29T11:32:30;22.60;99.90
7564;DHT22;3823;53.586;10.040;2023-07-29T11:34:57;22.60;92.20
7564;DHT22;3823;53.586;10.040;2023-07-29T11:37:22;22.70;99.90
7564;DHT22;3823;53.586;10.040;2023-07-29T11:39:48;22.70;22.90
7564;DHT22;3823;53.586;10.040;2023-07-29T11:42:14;22.80;21.80
7564;DHT22;3823;53.586;10.040;2023-07-29T11:44:40;23.10;1.00
7564;DHT22;3823;53.586;10.040;2023-07-29T11:47:07;23.40;1.00
7564;DHT22;3823;53.586;10.040;2023-07-29T11:49:34;23.70;1.00
7564;DHT22;3823;53.586;10.040;2023-07-29T11:52:00;23.90;1.00
7564;DHT22;3823;53.586;10.040;2023-07-29T11:54:25;24.10;1.00
7564;DHT22;3823;53.586;10.040;2023-07-29T11:56:51;24.20;1.00
7564;DHT22;3823;53.586;10.040;2023-07-29T11:59:17;24.40;1.00
7564;DHT22;3823;53.586;10.040;2023-07-29T12:01:42;24.60;1.00
7564;DHT22;3823;53.586;10.040;2023-07-29T12:04:08;24.70;1.00
7564;DHT22;3823;53.586;10.040;2023-07-29T12:06:34;24.80;1.00
7564;DHT22;3823;53.586;10.040;2023-07-29T12:09:00;24.90;1.00
7564;DHT22;3823;53.586;10.040;2023-07-29T12:11:26;24.70;1.00
7564;DHT22;3823;53.586;10.040;2023-07-29T12:13:53;24.50;1.00
7564;DHT22;3823;53.586;10.040;2023-07-29T12:16:19;24.40;1.00
7564;DHT22;3823;53.586;10.040;2023-07-29T12:18:45;24.40;1.00
7564;DHT22;3823;53.586;10.040;2023-07-29T12:21:10;24.40;1.00
7564;DHT22;3823;53.586;10.040;2023-07-29T12:23:36;24.60;1.00
7564;DHT22;3823;53.586;10.040;2023-07-29T12:26:02;24.60;1.00
7564;DHT22;3823;53.586;10.040;2023-07-29T12:28:28;24.50;1.00
7564;DHT22;3823;53.586;10.040;2023-07-29T12:30:54;24.60;1.00
7564;DHT22;3823;53.586;10.040;2023-07-29T12:33:30;24.70;1.00
7564;DHT22;3823;53.586;10.040;2023-07-29T12:35:56;24.80;1.00
7564;DHT22;3823;53.586;10.040;2023-07-29T12:38:22;24.80;1.00
7564;DHT22;3823;53.586;10.040;2023-07-29T12:40:47;24.90;1.00
7564;DHT22;3823;53.586;10.040;2023-07-29T12:43:13;25.00;1.00
7564;DHT22;3823;53.586;10.040;2023-07-29T12:45:39;25.00;1.00
7564;DHT22;3823;53.586;10.040;2023-07-29T12:48:08;25.00;1.00
7564;DHT22;3823;53.586;10.040;2023-07-29T12:50:33;25.00;1.00
7564;DHT22;3823;53.586;10.040;2023-07-29T12:52:59;24.90;1.00
7564;DHT22;3823;53.586;10.040;2023-07-29T12:55:24;24.80;1.00
7564;DHT22;3823;53.586;10.040;2023-07-29T12:57:50;24.80;1.00
7564;DHT22;3823;53.586;10.040;2023-07-29T13:00:16;24.80;1.00
7564;DHT22;3823;53.586;10.040;2023-07-29T13:02:42;24.90;1.00
7564;DHT22;3823;53.586;10.040;2023-07-29T13:05:10;25.00;1.00
7564;DHT22;3823;53.586;10.040;2023-07-29T13:07:40;24.80;1.00
7564;DHT22;3823;53.586;10.040;2023-07-29T13:10:06;24.90;1.00
7564;DHT22;3823;53.586;10.040;2023-07-29T13:12:32;25.00;1.00
7564;DHT22;3823;53.586;10.040;2023-07-29T13:14:58;25.10;1.00
7564;DHT22;3823;53.586;10.040;2023-07-29T13:17:23;25.20;1.00
7564;DHT22;3823;53.586;10.040;2023-07-29T13:19:49;25.30;1.00
7564;DHT22;3823;53.586;10.040;2023-07-29T13:22:14;25.40;1.00
7564;DHT22;3823;53.586;10.040;2023-07-29T13:24:40;25.30;1.00
7564;DHT22;3823;53.586;10.040;2023-07-29T13:27:06;25.30;1.00
7564;DHT22;3823;53.586;10.040;2023-07-29T13:29:32;25.30;1.00
7564;DHT22;3823;53.586;10.040;2023-07-29T13:31:57;25.30;1.00
7564;DHT22;3823;53.586;10.040;2023-07-29T13:34:23;25.10;1.00
7564;DHT22;3823;53.586;10.040;2023-07-29T13:36:48;25.00;1.00
7564;DHT22;3823;53.586;10.040;2023-07-29T13:39:14;24.90;1.00
7564;DHT22;3823;53.586;10.040;2023-07-29T13:41:39;24.80;1.00
7564;DHT22;3823;53.586;10.040;2023-07-29T13:44:05;24.70;1.00
7564;DHT22;3823;53.586;10.040;2023-07-29T13:46:30;24.60;1.00
7564;DHT22;3823;53.586;10.040;2023-07-29T13:48:56;24.70;1.00
7564;DHT22;3823;53.586;10.040;2023-07-29T13:51:21;24.80;1.00
7564;DHT22;3823;53.586;10.040;2023-07-29T13:53:47;24.80;1.00
7564;DHT22;3823;53.586;10.040;2023-07-29T13:56:12;24.90;1.00
7564;DHT22;3823;53.586;10.040;2023-07-29T13:58:38;24.80;1.00
7564;DHT22;3823;53.586;10.040;2023-07-29T14:01:03;24.90;1.00
7564;DHT22;3823;53.586;10.040;2023-07-29T14:03:29;24.90;1.00
7564;DHT22;3823;53.586;10.040;2023-07-29T14:05:54;24.90;1.00
7564;DHT22;3823;53.586;10.040;2023-07-29T14:08:20;25.00;1.00
7564;DHT22;3823;53.586;10.040;2023-07-29T14:10:49;25.20;1.00
7564;DHT22;3823;53.586;10.040;2023-07-29T14:13:14;25.20;1.00
7564;DHT22;3823;53.586;10.040;2023-07-29T14:15:40;25.30;1.00
7564;DHT22;3823;53.586;10.040;2023-07-29T14:18:05;25.20;1.00
7564;DHT22;3823;53.586;10.040;2023-07-29T14:20:32;25.30;1.00
7564;DHT22;3823;53.586;10.040;2023-07-29T14:22:58;25.30;1.00
7564;DHT22;3823;53.586;10.040;2023-07-29T14:25:23;25.30;1.00
7564;DHT22;3823;53.586;10.040;2023-07-29T14:27:50;25.20;1.00
7564;DHT22;3823;53.586;10.040;2023-07-29T14:30:15;25.30;1.00
7564;DHT22;3823;53.586;10.040;2023-07-29T14:32:41;25.30;1.00
7564;DHT22;3823;53.586;10.040;2023-07-29T14:35:07;25.40;1.00
7564;DHT22;3823;53.586;10.040;2023-07-29T14:37:33;25.20;1.00
7564;DHT22;3823;53.586;10.040;2023-07-29T14:39:59;25.30;1.00
7564;DHT22;3823;53.586;10.040;2023-07-29T14:42:26;25.30;1.00
7564;DHT22;3823;53.586;10.040;2023-07-29T14:44:52;25.30;1.00
7564;DHT22;3823;53.586;10.040;2023-07-29T14:47:17;25.20;1.00
7564;DHT22;3823;53.586;10.040;2023-07-29T14:49:44;25.10;1.00
7564;DHT22;3823;53.586;10.040;2023-07-29T14:52:10;25.10;1.00
7564;DHT22;3823;53.586;10.040;2023-07-29T14:54:35;25.10;1.00
7564;DHT22;3823;53.586;10.040;2023-07-29T14:57:01;25.10;1.00
7564;DHT22;3823;53.586;10.040;2023-07-29T14:59:26;25.20;1.00
7564;DHT22;3823;53.586;10.040;2023-07-29T15:01:52;25.20;1.00
7564;DHT22;3823;53.586;10.040;2023-07-29T15:04:18;25.20;1.00
7564;DHT22;3823;53.586;10.040;2023-07-29T15:06:44;25.20;1.00
7564;DHT22;3823;53.586;10.040;2023-07-29T15:09:09;25.30;1.00
7564;DHT22;3823;53.586;10.040;2023-07-29T15:11:35;25.30;1.00
7564;DHT22;3823;53.586;10.040;2023-07-29T15:14:02;25.30;1.00
7564;DHT22;3823;53.586;10.040;2023-07-29T15:16:28;25.20;1.00
7564;DHT22;3823;53.586;10.040;2023-07-29T15:18:54;25.10;1.00
7564;DHT22;3823;53.586;10.040;2023-07-29T15:21:19;25.10;1.00
7564;DHT22;3823;53.586;10.040;2023-07-29T15:23:45;25.10;1.00
7564;DHT22;3823;53.586;10.040;2023-07-29T15:26:11;25.20;1.00
7564;DHT22;3823;53.586;10.040;2023-07-29T15:28:37;25.20;1.00
7564;DHT22;3823;53.586;10.040;2023-07-29T15:31:02;25.20;1.00
7564;DHT22;3823;53.586;10.040;2023-07-29T15:33:28;25.20;1.00
7564;DHT22;3823;53.586;10.040;2023-07-29T15:35:53;25.20;1.00
7564;DHT22;3823;53.586;10.040;2023-07-29T15:38:19;25.20;1.00
7564;DHT22;3823;53.586;10.040;2023-07-29T15:40:45;25.20;1.00
7564;DHT22;3823;53.586;10.040;2023-07-29T15:43:10;25.30;1.00
7564;DHT22;3823;53.586;10.040;2023-07-29T15:45:36;25.10;1.00
7564;DHT22;3823;53.586;10.040;2023-07-29T15:48:01;25.00;1.00
7564;DHT22;3823;53.586;10.040;2023-07-29T15:50:28;25.00;1.00
7564;DHT22;3823;53.586;10.040;2023-07-29T15:52:54;24.90;1.00
7564;DHT22;3823;53.586;10.040;2023-07-29T15:55:20;24.90;1.00
7564;DHT22;3823;53.586;10.040;2023-07-29T15:57:46;24.80;1.00
7564;DHT22;3823;53.586;10.040;2023-07-29T16:00:12;24.70;1.00
7564;DHT22;3823;53.586;10.040;2023-07-29T16:02:38;24.50;1.00
7564;DHT22;3823;53.586;10.040;2023-07-29T16:05:07;24.40;1.00
7564;DHT22;3823;53.586;10.040;2023-07-29T16:07:33;24.30;1.00
7564;DHT22;3823;53.586;10.040;2023-07-29T16:09:58;24.30;1.00
7564;DHT22;3823;53.586;10.040;2023-07-29T16:12:24;24.30;1.00
7564;DHT22;3823;53.586;10.040;2023-07-29T16:14:50;24.20;1.00
7564;DHT22;3823;53.586;10.040;2023-07-29T16:17:16;24.20;1.00
7564;DHT22;3823;53.586;10.040;2023-07-29T16:19:56;24.10;1.00
7564;DHT22;3823;53.586;10.040;2023-07-29T16:22:22;24.00;1.00
7564;DHT22;3823;53.586;10.040;2023-07-29T16:24:48;23.70;1.00
7564;DHT22;3823;53.586;10.040;2023-07-29T16:27:15;23.40;1.00
7564;DHT22;3823;53.586;10.040;2023-07-29T16:29:40;23.10;1.00
7564;DHT22;3823;53.586;10.040;2023-07-29T16:32:06;22.80;1.00
7564;DHT22;3823;53.586;10.040;2023-07-29T16:34:32;22.40;51.40
7564;DHT22;3823;53.586;10.040;2023-07-29T16:36:57;22.20;99.90
7564;DHT22;3823;53.586;10.040;2023-07-29T16:39:23;21.80;99.90
7564;DHT22;3823;53.586;10.040;2023-07-29T16:41:48;21.60;99.90
7564;DHT22;3823;53.586;10.040;2023-07-29T16:44:14;21.20;99.90
7564;DHT22;3823;53.586;10.040;2023-07-29T16:46:39;21.00;1.00
7564;DHT22;3823;53.586;10.040;2023-07-29T16:49:05;20.90;1.00
7564;DHT22;3823;53.586;10.040;2023-07-29T16:51:30;20.90;1.00
7564;DHT22;3823;53.586;10.040;2023-07-29T16:53:56;20.90;1.00
7564;DHT22;3823;53.586;10.040;2023-07-29T16:56:22;20.90;1.00
7564;DHT22;3823;53.586;10.040;2023-07-29T16:58:47;20.90;1.00
7564;DHT22;3823;53.586;10.040;2023-07-29T17:01:13;20.80;1.00
7564;DHT22;3823;53.586;10.040;2023-07-29T17:03:39;20.90;1.00
7564;DHT22;3823;53.586;10.040;2023-07-29T17:06:04;21.00;1.00
7564;DHT22;3823;53.586;10.040;2023-07-29T17:08:31;21.00;1.00
7564;DHT22;3823;53.586;10.040;2023-07-29T17:10:56;21.10;1.00
7564;DHT22;3823;53.586;10.040;2023-07-29T17:13:22;21.10;1.00
7564;DHT22;3823;53.586;10.040;2023-07-29T17:15:47;21.10;1.00
7564;DHT22;3823;53.586;10.040;2023-07-29T17:18:13;21.00;1.00
7564;DHT22;3823;53.586;10.040;2023-07-29T17:20:39;21.00;1.00
7564;DHT22;3823;53.586;10.040;2023-07-29T17:23:04;21.00;1.00
7564;DHT22;3823;53.586;10.040;2023-07-29T17:25:30;21.00;1.00
7564;DHT22;3823;53.586;10.040;2023-07-29T17:27:57;21.00;1.00
7564;DHT22;3823;53.586;10.040;2023-07-29T17:30:22;21.00;1.00
7564;DHT22;3823;53.586;10.040;2023-07-29T17:32:50;20.90;1.00
7564;DHT22;3823;53.586;10.040;2023-07-29T17:35:16;20.90;1.00
7564;DHT22;3823;53.586;10.040;2023-07-29T17:37:43;20.80;1.00
7564;DHT22;3823;53.586;10.040;2023-07-29T17:40:09;20.80;1.00
7564;DHT22;3823;53.586;10.040;2023-07-29T17:42:34;20.70;1.00
7564;DHT22;3823;53.586;10.040;2023-07-29T17:45:00;20.70;1.00
7564;DHT22;3823;53.586;10.040;2023-07-29T17:47:25;20.70;1.00
7564;DHT22;3823;53.586;10.040;2023-07-29T17:49:51;20.70;1.00
7564;DHT22;3823;53.586;10.040;2023-07-29T17:52:17;20.70;1.00
7564;DHT22;3823;53.586;10.040;2023-07-29T17:54:42;20.80;1.00
7564;DHT22;3823;53.586;10.040;2023-07-29T17:57:08;20.70;1.00
7564;DHT22;3823;53.586;10.040;2023-07-29T17:59:33;20.70;1.00
7564;DHT22;3823;53.586;10.040;2023-07-29T18:01:59;20.80;1.00
7564;DHT22;3823;53.586;10.040;2023-07-29T18:04:25;20.80;1.00
7564;DHT22;3823;53.586;10.040;2023-07-29T18:06:51;20.80;1.00
7564;DHT22;3823;53.586;10.040;2023-07-29T18:09:16;20.80;1.00
7564;DHT22;3823;53.586;10.040;2023-07-29T18:11:42;20.70;1.00
7564;DHT22;3823;53.586;10.040;2023-07-29T18:14:08;20.70;1.00
7564;DHT22;3823;53.586;10.040;2023-07-29T18:16:34;20.70;1.00
7564;DHT22;3823;53.586;10.040;2023-07-29T18:19:02;20.70;1.00
7564;DHT22;3823;53.586;10.040;2023-07-29T18:21:27;20.60;1.00
7564;DHT22;3823;53.586;10.040;2023-07-29T18:23:53;20.60;1.00
7564;DHT22;3823;53.586;10.040;2023-07-29T18:26:18;20.50;1.00
7564;DHT22;3823;53.586;10.040;2023-07-29T18:28:44;20.50;1.00
7564;DHT22;3823;53.586;10.040;2023-07-29T18:31:10;20.50;1.00
7564;DHT22;3823;53.586;10.040;2023-07-29T18:33:35;20.50;1.00
7564;DHT22;3823;53.586;10.040;2023-07-29T18:36:03;20.50;1.00
7564;DHT22;3823;53.586;10.040;2023-07-29T18:38:29;20.50;1.00
7564;DHT22;3823;53.586;10.040;2023-07-29T18:40:54;20.50;1.00
7564;DHT22;3823;53.586;10.040;2023-07-29T18:43:20;20.50;1.00
7564;DHT22;3823;53.586;10.040;2023-07-29T18:45:45;20.40;1.00
7564;DHT22;3823;53.586;10.040;2023-07-29T18:48:11;20.40;1.00
7564;DHT22;3823;53.586;10.040;2023-07-29T18:50:37;20.40;1.00
7564;DHT22;3823;53.586;10.040;2023-07-29T18:53:02;20.30;1.00
7564;DHT22;3823;53.586;10.040;2023-07-29T18:55:28;20.30;1.00
7564;DHT22;3823;53.586;10.040;2023-07-29T18:57:57;20.20;1.00
7564;DHT22;3823;53.586;10.040;2023-07-29T19:00:23;20.30;1.00
7564;DHT22;3823;53.586;10.040;2023-07-29T19:02:48;20.30;1.00
7564;DHT22;3823;53.586;10.040;2023-07-29T19:05:14;20.10;1.00
7564;DHT22;3823;53.586;10.040;2023-07-29T19:07:40;20.20;1.00
7564;DHT22;3823;53.586;10.040;2023-07-29T19:10:06;20.20;1.00
7564;DHT22;3823;53.586;10.040;2023-07-29T19:12:32;20.20;1.00
7564;DHT22;3823;53.586;10.040;2023-07-29T19:14:58;20.20;1.00
7564;DHT22;3823;53.586;10.040;2023-07-29T19:17:23;20.10;1.00
7564;DHT22;3823;53.586;10.040;2023-07-29T19:19:49;20.10;1.00
7564;DHT22;3823;53.586;10.040;2023-07-29T19:22:14;20.10;1.00
7564;DHT22;3823;53.586;10.040;2023-07-29T19:24:40;20.10;1.00
7564;DHT22;3823;53.586;10.040;2023-07-29T19:27:06;20.00;1.00
7564;DHT22;3823;53.586;10.040;2023-07-29T19:29:32;20.00;1.00
7564;DHT22;3823;53.586;10.040;2023-07-29T19:31:58;20.00;1.00
7564;DHT22;3823;53.586;10.040;2023-07-29T19:34:23;20.00;1.00
7564;DHT22;3823;53.586;10.040;2023-07-29T19:36:49;20.00;1.00
7564;DHT22;3823;53.586;10.040;2023-07-29T19:39:15;19.90;1.00
7564;DHT22;3823;53.586;10.040;2023-07-29T19:41:41;19.90;1.00
7564;DHT22;3823;53.586;10.040;2023-07-29T19:44:06;19.90;1.00
7564;DHT22;3823;53.586;10.040;2023-07-29T19:46:32;19.90;1.00
7564;DHT22;3823;53.586;10.040;2023-07-29T19:48:58;19.90;1.00
7564;DHT22;3823;53.586;10.040;2023-07-29T19:51:24;19.90;1.00
7564;DHT22;3823;53.586;10.040;2023-07-29T19:53:50;19.80;1.00
7564;DHT22;3823;53.586;10.040;2023-07-29T19:56:17;19.80;1.00
7564;DHT22;3823;53.586;10.040;2023-07-29T19:58:42;19.80;1.00
7564;DHT22;3823;53.586;10.040;2023-07-29T20:01:08;19.80;1.00